Venez explorer les airs avec nous!

Que ce soit pour un vol de découverte, pour apprendre l’arts du pilotage ou pour voyager, venez nous rejoindre.

Information en heures locale pour LFDL
16 April 2024

Metar
LFBI 162130Z AUTO 33007KT CAVOK 09/07 Q1018 NOSIG

Lever du soleil : 07:09

Coucher du soleil : 20:48

Actualité

Appel aux dons

Notre Aéroclub Loudunais a vécu cet été une terrible tragédie qui nous profondément endeuillés et provoqué la perte définitive d’un …

L’aéro club Loudunais organise le dimanche 1/10 un café croissant. Et pour continuer ce moment de convivialité, il sera possible …

C’est avec une infinie tristesse que nous avons appris le décès de notre pilote Gérard Leclerc, de Michèle Monory et …

C’est ce lundi 19 juin que l’Ecole de Parachutisme Ascensionnel de l’Aéroclub Loudunais (EPAAL), a reçu des pensionnaires de l’ADAPEI …

Newsletter Sign Up

Praesent libero sed cursus anted dapibus diam